Startpagina
METAR-TAF:

METAR-TAF

Vliegvelden :

Nawabshah, Pakistan

breedte: 26-15N, lengte: 068-22E, hoogte: 37 m

Actueel weer

Dit bericht is 1 uur en het 20 minuten geleden gemaakt, om 10:00 UTC
Wind 12 kt uit het zuiden
Temperatuur 40°C
Vochtigheid 40%
Druk 995 hPa
Verspreide wolken op 3500 ft
Verspreide wolken op 10000 ft

METAR: OPNH 191000Z 18012KT 6000M SCT035 SCT100 40/24 Q0995 NOSIG

Tijdstip: 16:20 (11:20 UTC)

Verwachting

Dit bericht is 7 uur en het 50 minuten geleden gemaakt, om 03:30 UTC
Verwachting geldig van 19 om 06 UTC tot 19 om 15 UTC
Wind 5 kt uit het zuiden met uitschieters tot 15 kt
Zicht: 5000 m
Verspreide wolken op 3000 ft
Verspreide wolken op 10000 ft
Heiigheid
Tijdelijke
van 19 om 10 UTC tot 19 om 14 UTC
Wind 15 kt uit het noordoosten met uitschieters tot 25 kt
Zicht: 2000 m
Weinig wolken op 2500 ft, Cumulonimbus.
Verspreide wolken op 3000 ft
Gebroken wolken op 10000 ft

TAF: OPNH 190330Z 1906/1915 18005G15KT 5000 HZ SCT030 SCT100 TEMPO 1910/1914 05015G25KT 2000 DS/TSRA FEW025CB SCT030 BKN100

Waarnemingen en weersverwachtingen van meer dan 4000 vliegvelden (METAR en TAF).

De beschikbare stations zijn de gele en rode punten op de kaart.

Ga met uw muis naar het station om de naam te zien.

Klik dan om waarnemingen en weersverwachtingen te zien.

kaart wijzigen: klik op de groene knoppen met een zwart kruis om in te zoomen, op de groene knop met een streepje om uit te zoomen of op de groene pijlen voor aangrenzende kaarten.


METAR-TAF: